createdAt,value
2022-11-24T00:09:16.000Z,7.40
2022-11-24T00:29:16.000Z,5.30
2022-11-24T00:39:16.000Z,4.00
2022-11-24T00:49:15.000Z,3.80
2022-11-24T00:59:15.000Z,5.40
2022-11-24T01:09:15.000Z,3.60
2022-11-24T01:19:15.000Z,5.20
2022-11-24T01:29:15.000Z,4.50
2022-11-24T01:39:15.000Z,4.10
2022-11-24T01:59:15.000Z,6.70
2022-11-24T02:09:14.000Z,3.70
2022-11-24T02:19:14.000Z,4.90
2022-11-24T02:29:14.000Z,4.00
2022-11-24T02:39:14.000Z,3.50
2022-11-24T02:49:14.000Z,4.90
2022-11-24T02:59:14.000Z,4.50
2022-11-24T03:09:14.000Z,4.90
2022-11-24T03:29:13.000Z,3.70
2022-11-24T03:39:13.000Z,3.50
2022-11-24T03:49:13.000Z,5.80
2022-11-24T03:59:13.000Z,4.30
2022-11-24T04:09:13.000Z,4.70
2022-11-24T04:19:13.000Z,3.40
2022-11-24T04:29:13.000Z,3.00
2022-11-24T04:29:13.000Z,3.00
2022-11-24T04:39:12.000Z,3.50
2022-11-24T04:59:12.000Z,3.00
2022-11-24T05:09:12.000Z,3.30
2022-11-24T05:19:12.000Z,3.20
2022-11-24T05:29:12.000Z,3.30
2022-11-24T05:39:12.000Z,5.80
2022-11-24T05:49:12.000Z,4.30
2022-11-24T05:59:11.000Z,3.50
2022-11-24T06:09:11.000Z,6.40
2022-11-24T06:29:11.000Z,3.40
2022-11-24T06:39:11.000Z,4.40
2022-11-24T06:49:11.000Z,4.20
2022-11-24T06:59:11.000Z,3.20
2022-11-24T07:09:10.000Z,4.80
2022-11-24T07:19:10.000Z,4.70
2022-11-24T07:29:10.000Z,3.30
2022-11-24T07:39:10.000Z,3.10
2022-11-24T07:59:10.000Z,3.30
2022-11-24T08:09:10.000Z,2.70
2022-11-24T08:19:09.000Z,2.30
2022-11-24T08:29:09.000Z,2.10
2022-11-24T08:54:26.000Z,2.60
2022-11-24T09:09:43.000Z,1.70
2022-11-24T09:09:43.000Z,1.70
2022-11-24T09:19:43.000Z,1.30
2022-11-24T09:29:43.000Z,1.60
2022-11-24T09:39:43.000Z,1.80
2022-11-24T09:49:42.000Z,1.60
2022-11-24T10:25:15.000Z,1.60
2022-11-24T11:01:09.000Z,1.00
2022-11-24T11:01:09.000Z,1.50
2022-11-24T11:11:09.000Z,1.60
2022-11-24T11:21:09.000Z,1.30
2022-11-24T11:31:09.000Z,1.30
2022-11-24T11:41:09.000Z,1.40
2022-11-24T11:41:09.000Z,1.40
2022-11-24T11:51:08.000Z,1.50
2022-11-24T12:01:08.000Z,1.30
2022-11-24T12:11:08.000Z,0.90
2022-11-24T12:51:25.000Z,1.30
2022-11-24T12:51:25.000Z,0.80
2022-11-24T13:01:25.000Z,1.30
2022-11-24T13:11:25.000Z,1.10
2022-11-24T13:21:25.000Z,1.00
2022-11-24T13:31:25.000Z,0.90
2022-11-24T13:41:25.000Z,0.70
2022-11-24T13:51:24.000Z,1.60
2022-11-24T14:01:24.000Z,1.00
2022-11-24T14:21:24.000Z,1.00
2022-11-24T14:31:24.000Z,1.10
2022-11-24T14:41:24.000Z,1.00
2022-11-24T14:51:24.000Z,1.80
2022-11-24T15:01:23.000Z,1.40
2022-11-24T15:11:23.000Z,2.70
2022-11-24T15:21:23.000Z,3.00
2022-11-24T15:31:23.000Z,3.60
2022-11-24T15:51:23.000Z,1.40
2022-11-24T16:01:23.000Z,1.60
2022-11-24T16:11:22.000Z,0.60
2022-11-24T16:21:22.000Z,1.10
2022-11-24T16:31:22.000Z,1.50
2022-11-24T16:41:22.000Z,1.50
2022-11-24T16:51:22.000Z,2.50
2022-11-24T17:01:22.000Z,1.90
2022-11-24T17:21:21.000Z,2.60
2022-11-24T17:31:21.000Z,2.30
2022-11-24T17:41:21.000Z,3.70
2022-11-24T17:51:21.000Z,3.80
2022-11-24T18:01:21.000Z,2.90
2022-11-24T18:11:21.000Z,2.40
2022-11-24T18:21:21.000Z,2.00
2022-11-24T18:31:21.000Z,2.10
2022-11-24T18:51:20.000Z,2.20
2022-11-24T19:01:20.000Z,2.60
2022-11-24T19:11:20.000Z,2.00
2022-11-24T19:21:20.000Z,1.80
2022-11-24T19:31:20.000Z,1.90
2022-11-24T19:41:20.000Z,2.60
2022-11-24T19:51:19.000Z,2.10
2022-11-24T20:01:19.000Z,1.50
2022-11-24T20:21:19.000Z,1.90
2022-11-24T20:31:19.000Z,2.20
2022-11-24T20:41:19.000Z,2.70
2022-11-24T20:51:19.000Z,2.50
2022-11-24T21:01:18.000Z,1.60
2022-11-24T21:11:18.000Z,2.60
2022-11-24T21:41:35.000Z,2.20
2022-11-24T21:41:35.000Z,1.80
2022-11-24T21:51:35.000Z,1.40
2022-11-24T22:27:10.000Z,1.70
2022-11-24T22:27:10.000Z,2.00
2022-11-24T22:52:27.000Z,2.10
2022-11-24T22:52:27.000Z,2.20
2022-11-24T23:02:26.000Z,1.30
2022-11-24T23:12:26.000Z,1.80
2022-11-24T23:22:26.000Z,1.90
2022-11-24T23:32:26.000Z,2.30
2022-11-24T23:42:26.000Z,1.80
2022-11-24T23:52:26.000Z,2.00
